createdAt,value
2022-12-29T00:00:10.919Z,98544.30
2022-12-29T00:03:02.919Z,98544.45
2022-12-29T00:05:30.839Z,98542.15
2022-12-29T00:07:58.645Z,98540.42
2022-12-29T00:10:26.462Z,98536.55
2022-12-29T00:13:12.955Z,98538.77
2022-12-29T00:15:43.229Z,98535.82
2022-12-29T00:18:11.117Z,98533.39
2022-12-29T00:20:57.793Z,98534.05
2022-12-29T00:23:46.505Z,98533.84
2022-12-29T00:26:36.796Z,98535.80
2022-12-29T00:29:27.533Z,98543.05
2022-12-29T00:32:14.375Z,98542.98
2022-12-29T00:35:01.487Z,98541.93
2022-12-29T00:37:49.253Z,98540.86
2022-12-29T00:40:35.524Z,98536.85
2022-12-29T00:43:22.052Z,98540.66
2022-12-29T00:45:49.865Z,98542.32
2022-12-29T00:48:37.688Z,98540.32
2022-12-29T00:51:06.187Z,98540.27
2022-12-29T00:53:35.780Z,98539.12
2022-12-29T00:56:03.709Z,98539.48
2022-12-29T00:58:31.544Z,98543.39
2022-12-29T01:01:07.076Z,98539.33
2022-12-29T01:03:35.748Z,98539.98
2022-12-29T01:06:04.817Z,98539.83
2022-12-29T01:08:32.921Z,98540.58
2022-12-29T01:11:08.625Z,98531.80
2022-12-29T01:13:36.759Z,98527.88
2022-12-29T01:16:06.366Z,98528.43
2022-12-29T01:18:36.340Z,98527.96
2022-12-29T01:21:05.541Z,98523.41
2022-12-29T01:23:33.637Z,98528.57
2022-12-29T01:26:11.701Z,98524.95
2022-12-29T01:28:41.234Z,98523.08
2022-12-29T01:31:09.811Z,98519.52
2022-12-29T01:33:38.895Z,98521.17
2022-12-29T01:36:08.670Z,98516.36
2022-12-29T01:38:37.988Z,98517.85
2022-12-29T01:41:06.939Z,98513.81
2022-12-29T01:43:49.059Z,98512.88
2022-12-29T01:46:24.865Z,98506.88
2022-12-29T01:49:05.982Z,98505.73
2022-12-29T01:51:36.562Z,98503.13
2022-12-29T01:54:07.284Z,98501.16
2022-12-29T01:56:35.471Z,98496.70
2022-12-29T01:59:07.626Z,98495.11
2022-12-29T02:01:35.793Z,98493.34
2022-12-29T02:04:04.525Z,98489.56
2022-12-29T02:06:34.129Z,98488.11
2022-12-29T02:09:02.516Z,98483.50
2022-12-29T02:11:31.101Z,98484.73
2022-12-29T02:14:03.183Z,98483.55
2022-12-29T02:16:37.501Z,98478.38
2022-12-29T02:19:28.695Z,98471.64
2022-12-29T02:22:15.243Z,98470.09
2022-12-29T02:25:13.772Z,98473.66
2022-12-29T02:27:54.618Z,98474.67
2022-12-29T02:30:45.347Z,98473.90
2022-12-29T02:33:30.158Z,98471.52
2022-12-29T02:36:08.997Z,98472.73
2022-12-29T02:38:55.801Z,98477.48
2022-12-29T02:41:32.937Z,98481.88
2022-12-29T02:44:10.560Z,98477.15
2022-12-29T02:46:54.540Z,98469.27
2022-12-29T02:49:38.146Z,98468.65
2022-12-29T02:52:09.015Z,98466.44
2022-12-29T02:54:42.923Z,98468.55
2022-12-29T02:57:12.984Z,98465.66
2022-12-29T02:59:45.080Z,98466.56
2022-12-29T03:02:19.206Z,98466.34
2022-12-29T03:05:06.097Z,98469.74
2022-12-29T03:07:52.590Z,98473.98
2022-12-29T03:10:26.132Z,98477.83
2022-12-29T03:13:15.922Z,98477.90
2022-12-29T03:16:02.155Z,98484.60
2022-12-29T03:18:36.351Z,98486.52
2022-12-29T03:21:45.678Z,98484.66
2022-12-29T03:24:14.423Z,98482.98
2022-12-29T03:26:43.794Z,98482.12
2022-12-29T03:29:12.267Z,98478.96
2022-12-29T03:31:41.914Z,98481.11
2022-12-29T03:34:10.882Z,98481.95
2022-12-29T03:36:43.581Z,98483.15
2022-12-29T03:39:13.436Z,98479.17
2022-12-29T03:41:45.681Z,98483.20
2022-12-29T03:44:15.186Z,98486.95
2022-12-29T03:46:43.103Z,98491.23
2022-12-29T03:49:11.048Z,98496.81
2022-12-29T03:51:40.839Z,98493.79
2022-12-29T03:54:08.676Z,98491.32
2022-12-29T03:56:36.720Z,98489.27
2022-12-29T03:59:04.888Z,98489.91
2022-12-29T04:01:39.499Z,98487.83
2022-12-29T04:04:08.690Z,98484.75
2022-12-29T04:06:36.802Z,98479.76
2022-12-29T04:09:07.585Z,98479.38
2022-12-29T04:11:39.964Z,98481.73
2022-12-29T04:14:08.140Z,98488.05
2022-12-29T04:16:39.806Z,98486.77
2022-12-29T04:19:08.693Z,98484.23
2022-12-29T04:21:37.789Z,98487.39
2022-12-29T04:24:07.636Z,98486.73
2022-12-29T04:26:40.411Z,98485.59
2022-12-29T04:29:28.227Z,98479.82
2022-12-29T04:32:25.565Z,98477.86
2022-12-29T04:34:55.500Z,98477.25
2022-12-29T04:37:23.822Z,98479.06
2022-12-29T04:39:51.818Z,98481.77
2022-12-29T04:42:20.088Z,98482.92
2022-12-29T04:44:48.195Z,98484.09
2022-12-29T04:47:24.391Z,98483.20
2022-12-29T04:50:07.310Z,98474.59
2022-12-29T04:53:04.239Z,98471.23
2022-12-29T04:55:34.176Z,98465.77
2022-12-29T04:58:02.628Z,98466.40
2022-12-29T05:00:32.971Z,98470.59
2022-12-29T05:03:01.183Z,98468.55
2022-12-29T05:05:31.191Z,98465.52
2022-12-29T05:07:59.966Z,98465.02
2022-12-29T05:10:28.706Z,98463.19
2022-12-29T05:13:16.631Z,98458.38
2022-12-29T05:15:51.294Z,98460.98
2022-12-29T05:18:20.070Z,98467.87
2022-12-29T05:20:48.607Z,98476.52
2022-12-29T05:23:16.756Z,98478.52
2022-12-29T05:25:47.317Z,98476.36
2022-12-29T05:28:20.806Z,98476.61
2022-12-29T05:30:58.821Z,98480.17
2022-12-29T05:33:26.870Z,98485.14
2022-12-29T05:35:54.840Z,98484.35
2022-12-29T05:38:24.560Z,98491.21
2022-12-29T05:40:52.524Z,98494.67
2022-12-29T05:43:40.687Z,98492.43
2022-12-29T05:46:22.285Z,98487.00
2022-12-29T05:49:07.800Z,98484.03
2022-12-29T05:51:54.243Z,98486.73
2022-12-29T05:54:25.471Z,98487.13
2022-12-29T05:56:53.609Z,98490.73
2022-12-29T05:59:22.040Z,98496.04
2022-12-29T06:01:50.615Z,98502.29
2022-12-29T06:04:18.758Z,98502.48
2022-12-29T06:06:46.853Z,98502.30
2022-12-29T06:09:22.723Z,98505.27
2022-12-29T06:11:50.828Z,98518.42
2022-12-29T06:14:20.282Z,98523.91
2022-12-29T06:16:50.295Z,98527.98
2022-12-29T06:19:18.628Z,98535.96
2022-12-29T06:21:46.504Z,98539.73
2022-12-29T06:24:14.547Z,98540.27
2022-12-29T06:26:43.062Z,98543.67
2022-12-29T06:29:11.249Z,98545.90
2022-12-29T06:31:39.496Z,98548.24
2022-12-29T06:34:08.627Z,98550.27
2022-12-29T06:36:38.436Z,98550.08
2022-12-29T06:39:06.946Z,98550.02
2022-12-29T06:41:35.242Z,98541.98
2022-12-29T06:44:35.627Z,98546.81
2022-12-29T06:47:07.055Z,98549.41
2022-12-29T06:49:35.117Z,98553.86
2022-12-29T06:52:10.748Z,98553.77
2022-12-29T06:54:40.758Z,98551.52
2022-12-29T06:57:08.618Z,98551.45
2022-12-29T06:59:36.587Z,98550.34
2022-12-29T07:02:04.579Z,98546.51
2022-12-29T07:04:32.738Z,98549.77
2022-12-29T07:07:00.692Z,98553.04
2022-12-29T07:09:31.030Z,98550.84
2022-12-29T07:11:59.621Z,98542.33
2022-12-29T07:14:27.522Z,98542.30
2022-12-29T07:16:55.504Z,98543.37
2022-12-29T07:19:23.387Z,98540.94
2022-12-29T07:21:55.330Z,98541.19
2022-12-29T07:24:23.485Z,98541.10
2022-12-29T07:26:51.347Z,98541.51
2022-12-29T07:29:19.760Z,98538.05
2022-12-29T07:31:47.685Z,98535.73
2022-12-29T07:34:15.684Z,98542.69
2022-12-29T07:36:45.075Z,98541.15
2022-12-29T07:39:13.222Z,98534.99
2022-12-29T07:41:41.329Z,98534.85
2022-12-29T07:44:13.440Z,98540.05
2022-12-29T07:46:59.944Z,98527.42
2022-12-29T07:49:30.772Z,98526.90
2022-12-29T07:51:59.203Z,98526.15
2022-12-29T07:54:27.119Z,98530.59
2022-12-29T07:56:55.526Z,98523.94
2022-12-29T07:59:23.481Z,98518.30
2022-12-29T08:01:52.922Z,98511.36
2022-12-29T08:04:22.835Z,98506.84
2022-12-29T08:06:50.926Z,98504.85
2022-12-29T08:09:22.640Z,98502.91
2022-12-29T08:11:52.329Z,98502.13
2022-12-29T08:14:20.575Z,98504.13
2022-12-29T08:16:48.668Z,98497.71
2022-12-29T08:19:16.708Z,98495.07
2022-12-29T08:21:44.654Z,98492.13
2022-12-29T08:24:14.801Z,98488.16
2022-12-29T08:26:42.743Z,98486.72
2022-12-29T08:29:10.814Z,98482.98
2022-12-29T08:31:38.971Z,98489.90
2022-12-29T08:34:07.492Z,98491.27
2022-12-29T08:36:37.578Z,98485.36
2022-12-29T08:39:05.452Z,98480.89
2022-12-29T08:41:34.514Z,98482.80
2022-12-29T08:44:02.420Z,98478.17
2022-12-29T08:46:30.409Z,98480.38
2022-12-29T08:48:58.489Z,98482.52
2022-12-29T08:51:26.468Z,98486.19
2022-12-29T08:53:54.648Z,98485.51
2022-12-29T08:56:24.909Z,98478.19
2022-12-29T08:58:56.434Z,98475.81
2022-12-29T09:01:25.598Z,98470.79
2022-12-29T09:04:14.158Z,98471.14
2022-12-29T09:06:43.831Z,98464.16
2022-12-29T09:09:12.276Z,98454.52
2022-12-29T09:11:40.392Z,98449.05
2022-12-29T09:14:08.590Z,98448.41
2022-12-29T09:16:37.065Z,98448.64
2022-12-29T09:19:04.946Z,98445.59
2022-12-29T09:21:33.010Z,98438.55
2022-12-29T09:24:01.274Z,98429.13
2022-12-29T09:26:32.456Z,98429.04
2022-12-29T09:29:00.397Z,98425.20
2022-12-29T09:31:29.915Z,98431.45
2022-12-29T09:33:58.419Z,98431.46
2022-12-29T09:36:27.485Z,98430.90
2022-12-29T09:38:55.604Z,98427.91
2022-12-29T09:42:00.447Z,98422.90
2022-12-29T09:44:31.562Z,98418.72
2022-12-29T09:47:01.836Z,98409.72
2022-12-29T09:49:36.597Z,98409.77
2022-12-29T09:52:08.008Z,98402.41
2022-12-29T09:54:39.924Z,98401.96
2022-12-29T09:57:23.537Z,98400.15
2022-12-29T09:59:55.297Z,98394.14
2022-12-29T10:02:35.788Z,98393.52
2022-12-29T10:05:04.304Z,98396.65
2022-12-29T10:07:38.740Z,98403.47
2022-12-29T10:10:23.734Z,98403.36
2022-12-29T10:13:01.993Z,98406.20
2022-12-29T10:15:32.991Z,98406.06
2022-12-29T10:18:04.130Z,98405.07
2022-12-29T10:20:50.868Z,98402.18
2022-12-29T10:23:23.781Z,98402.10
2022-12-29T10:25:55.084Z,98409.48
2022-12-29T10:28:25.260Z,98407.52
2022-12-29T10:30:54.916Z,98412.75
2022-12-29T10:33:25.322Z,98412.05
2022-12-29T10:35:53.136Z,98408.82
2022-12-29T10:38:32.730Z,98406.77
2022-12-29T10:41:10.369Z,98407.04
2022-12-29T10:43:46.742Z,98406.98
2022-12-29T10:46:19.241Z,98401.66
2022-12-29T10:48:48.607Z,98397.98
2022-12-29T10:51:21.676Z,98391.77
2022-12-29T10:54:12.813Z,98390.75
2022-12-29T10:56:45.890Z,98392.42
2022-12-29T10:59:16.977Z,98386.89
2022-12-29T11:01:51.155Z,98377.34
2022-12-29T11:04:42.875Z,98376.51
2022-12-29T11:07:15.907Z,98379.97
2022-12-29T11:09:45.899Z,98373.25
2022-12-29T11:12:30.819Z,98369.87
2022-12-29T11:15:03.926Z,98363.19
2022-12-29T11:17:43.693Z,98355.83
2022-12-29T11:20:23.092Z,98352.25
2022-12-29T11:22:51.125Z,98351.42
2022-12-29T11:25:19.153Z,98348.44
2022-12-29T11:27:57.964Z,98348.46
2022-12-29T11:30:28.219Z,98343.30
2022-12-29T11:32:56.732Z,98338.06
2022-12-29T11:35:35.172Z,98334.96
2022-12-29T11:38:04.079Z,98334.30
2022-12-29T11:40:32.624Z,98326.77
2022-12-29T11:43:04.574Z,98325.94
2022-12-29T11:45:36.201Z,98320.95
2022-12-29T11:48:09.978Z,98318.27
2022-12-29T11:50:40.119Z,98322.92
2022-12-29T11:53:18.159Z,98321.82
2022-12-29T11:56:03.609Z,98314.93
2022-12-29T11:58:34.230Z,98309.10
2022-12-29T12:01:05.219Z,98311.97
2022-12-29T12:03:37.000Z,98318.95
2022-12-29T12:06:07.391Z,98318.43
2022-12-29T12:08:40.427Z,98316.88
2022-12-29T12:11:11.962Z,98311.50
2022-12-29T12:13:44.204Z,98306.35
2022-12-29T12:16:18.205Z,98305.80
2022-12-29T12:18:56.047Z,98298.16
2022-12-29T12:21:24.673Z,98293.58
2022-12-29T12:23:55.931Z,98288.14
2022-12-29T12:26:31.332Z,98286.16
2022-12-29T12:29:10.038Z,98282.16
2022-12-29T12:31:44.469Z,98278.57
2022-12-29T12:34:17.162Z,98275.30
2022-12-29T12:37:05.267Z,98269.41
2022-12-29T12:39:50.968Z,98270.31
2022-12-29T12:42:35.768Z,98270.31
2022-12-29T12:45:11.928Z,98270.13
2022-12-29T12:47:48.522Z,98274.71
2022-12-29T12:50:19.741Z,98267.04
2022-12-29T12:52:50.861Z,98270.77
2022-12-29T12:55:37.456Z,98270.98
2022-12-29T12:58:23.917Z,98270.52
2022-12-29T13:01:13.124Z,98275.42
2022-12-29T13:04:00.206Z,98276.69
2022-12-29T13:06:47.573Z,98280.98
2022-12-29T13:09:36.365Z,98279.06
2022-12-29T13:12:10.304Z,98281.63
2022-12-29T13:14:44.298Z,98285.48
2022-12-29T13:17:42.240Z,98287.67
2022-12-29T13:20:28.588Z,98290.55
2022-12-29T13:22:56.462Z,98294.69
2022-12-29T13:25:44.767Z,98288.07
2022-12-29T13:28:28.281Z,98288.03
2022-12-29T13:31:12.879Z,98286.70
2022-12-29T13:33:56.255Z,98283.84
2022-12-29T13:36:26.752Z,98281.97
2022-12-29T13:39:04.479Z,98282.79
2022-12-29T13:41:36.414Z,98278.05
2022-12-29T13:44:05.781Z,98277.11
2022-12-29T13:46:41.830Z,98279.49
2022-12-29T13:49:22.887Z,98283.15
2022-12-29T13:51:53.058Z,98284.86
2022-12-29T13:54:30.716Z,98288.57
2022-12-29T13:57:09.387Z,98284.40
2022-12-29T13:59:41.977Z,98289.70
2022-12-29T14:02:10.043Z,98293.02
2022-12-29T14:04:55.759Z,98294.17
2022-12-29T14:07:23.853Z,98289.71
2022-12-29T14:09:54.612Z,98289.94
2022-12-29T14:12:30.771Z,98296.80
2022-12-29T14:15:12.397Z,98285.44
2022-12-29T14:18:01.341Z,98284.48
2022-12-29T14:20:30.372Z,98287.08
2022-12-29T14:22:59.848Z,98284.92
2022-12-29T14:25:51.680Z,98292.05
2022-12-29T14:28:29.999Z,98286.70
2022-12-29T14:30:59.819Z,98287.59
2022-12-29T14:33:30.753Z,98289.02
2022-12-29T14:36:18.927Z,98286.39
2022-12-29T14:38:48.083Z,98286.86
2022-12-29T14:41:25.423Z,98277.30
2022-12-29T14:43:55.625Z,98277.61
2022-12-29T14:46:23.894Z,98271.27
2022-12-29T14:48:56.552Z,98275.44
2022-12-29T14:51:33.855Z,98275.66
2022-12-29T14:54:21.853Z,98278.70
2022-12-29T14:56:50.337Z,98275.31
2022-12-29T14:59:18.923Z,98275.92
2022-12-29T15:01:50.592Z,98270.53
2022-12-29T15:04:26.623Z,98267.65
2022-12-29T15:06:55.559Z,98267.98
2022-12-29T15:09:30.743Z,98269.21
2022-12-29T15:12:11.063Z,98264.92
2022-12-29T15:14:50.193Z,98261.67
2022-12-29T15:17:29.086Z,98256.11
2022-12-29T15:20:00.416Z,98260.83
2022-12-29T15:22:28.779Z,98256.07
2022-12-29T15:24:59.039Z,98255.42
2022-12-29T15:27:28.241Z,98254.81
2022-12-29T15:29:57.987Z,98262.85
2022-12-29T15:32:27.484Z,98266.83
2022-12-29T15:34:56.881Z,98265.75
2022-12-29T15:37:25.322Z,98261.25
2022-12-29T15:39:55.826Z,98260.74
2022-12-29T15:42:24.705Z,98268.27
2022-12-29T15:44:57.895Z,98272.10
2022-12-29T15:47:31.757Z,98263.40
2022-12-29T15:50:15.766Z,98268.64
2022-12-29T15:52:43.808Z,98267.69
2022-12-29T15:55:38.303Z,98269.52
2022-12-29T15:58:18.895Z,98276.36
2022-12-29T16:00:57.816Z,98275.77
2022-12-29T16:03:27.916Z,98275.33
2022-12-29T16:05:58.769Z,98272.66
2022-12-29T16:08:34.822Z,98284.45
2022-12-29T16:11:04.122Z,98280.23
2022-12-29T16:13:40.024Z,98276.17
2022-12-29T16:16:20.258Z,98279.38
2022-12-29T16:18:53.429Z,98277.70
2022-12-29T16:21:33.443Z,98278.79
2022-12-29T16:24:03.273Z,98277.91
2022-12-29T16:26:31.573Z,98281.29
2022-12-29T16:29:02.475Z,98282.16
2022-12-29T16:31:35.569Z,98279.55
2022-12-29T16:34:21.237Z,98293.45
2022-12-29T16:36:54.419Z,98284.10
2022-12-29T16:39:27.534Z,98274.35
2022-12-29T16:41:56.378Z,98273.45
2022-12-29T16:44:28.861Z,98276.05
2022-12-29T16:47:02.448Z,98276.34
2022-12-29T16:49:31.237Z,98271.22
2022-12-29T16:51:59.518Z,98273.98
2022-12-29T16:54:34.954Z,98278.42
2022-12-29T16:57:04.003Z,98274.70
2022-12-29T16:59:32.065Z,98274.92
2022-12-29T17:02:02.757Z,98274.11
2022-12-29T17:04:31.554Z,98266.81
2022-12-29T17:07:00.042Z,98267.67
2022-12-29T17:09:29.121Z,98270.54
2022-12-29T17:12:05.416Z,98268.84
2022-12-29T17:14:48.044Z,98265.36
2022-12-29T17:17:18.368Z,98253.16
2022-12-29T17:19:59.827Z,98245.15
2022-12-29T17:22:28.483Z,98235.60
2022-12-29T17:24:58.937Z,98245.69
2022-12-29T17:27:38.966Z,98248.84
2022-12-29T17:30:17.627Z,98258.63
2022-12-29T17:32:55.566Z,98255.90
2022-12-29T17:35:24.307Z,98241.27
2022-12-29T17:37:53.219Z,98243.24
2022-12-29T17:40:22.976Z,98245.83
2022-12-29T17:42:56.427Z,98246.00
2022-12-29T17:45:29.314Z,98235.30
2022-12-29T17:48:00.084Z,98231.77
2022-12-29T17:50:31.988Z,98229.15
2022-12-29T17:53:01.991Z,98242.46
2022-12-29T17:55:37.291Z,98246.21
2022-12-29T17:58:25.839Z,98238.41
2022-12-29T18:00:58.138Z,98231.34
2022-12-29T18:03:31.508Z,98234.69
2022-12-29T18:06:01.809Z,98235.19
2022-12-29T18:08:30.566Z,98227.26
2022-12-29T18:10:59.291Z,98218.52
2022-12-29T18:13:39.363Z,98223.96
2022-12-29T18:16:14.114Z,98220.40
2022-12-29T18:18:42.175Z,98223.71
2022-12-29T18:21:20.820Z,98235.91
2022-12-29T18:23:49.265Z,98231.92
2022-12-29T18:26:23.927Z,98236.48
2022-12-29T18:28:59.327Z,98235.34
2022-12-29T18:31:29.891Z,98232.02
2022-12-29T18:33:58.923Z,98237.98
2022-12-29T18:36:27.312Z,98237.46
2022-12-29T18:38:59.875Z,98239.94
2022-12-29T18:41:32.244Z,98240.93
2022-12-29T18:44:02.286Z,98242.05
2022-12-29T18:46:30.416Z,98238.17
2022-12-29T18:48:58.631Z,98236.16
2022-12-29T18:51:26.695Z,98235.02
2022-12-29T18:53:55.398Z,98224.86
2022-12-29T18:56:24.534Z,98221.34
2022-12-29T18:58:53.712Z,98219.05
2022-12-29T19:01:23.761Z,98224.50
2022-12-29T19:03:52.034Z,98222.48
2022-12-29T19:06:21.772Z,98229.33
2022-12-29T19:08:49.757Z,98226.23
2022-12-29T19:11:19.041Z,98222.35
2022-12-29T19:13:47.026Z,98209.95
2022-12-29T19:16:22.779Z,98203.72
2022-12-29T19:19:07.949Z,98203.71
2022-12-29T19:21:37.223Z,98197.98
2022-12-29T19:24:05.266Z,98203.16
2022-12-29T19:26:36.205Z,98200.89
2022-12-29T19:29:04.983Z,98203.90
2022-12-29T19:31:33.126Z,98203.04
2022-12-29T19:34:03.921Z,98207.59
2022-12-29T19:36:32.371Z,98217.34
2022-12-29T19:39:00.806Z,98208.62
2022-12-29T19:41:29.231Z,98203.95
2022-12-29T19:43:57.267Z,98210.40
2022-12-29T19:46:25.835Z,98205.39
2022-12-29T19:48:58.731Z,98206.02
2022-12-29T19:51:30.600Z,98205.77
2022-12-29T19:54:00.854Z,98205.57
2022-12-29T19:56:28.992Z,98204.15
2022-12-29T19:58:57.895Z,98199.88
2022-12-29T20:01:26.383Z,98199.13
2022-12-29T20:03:54.544Z,98183.67
2022-12-29T20:06:22.397Z,98172.42
2022-12-29T20:08:50.304Z,98184.63
2022-12-29T20:11:19.252Z,98182.48
2022-12-29T20:13:47.950Z,98186.65
2022-12-29T20:16:20.211Z,98187.81
2022-12-29T20:18:48.735Z,98188.34
2022-12-29T20:21:20.504Z,98174.13
2022-12-29T20:23:48.822Z,98170.98
2022-12-29T20:26:19.696Z,98167.23
2022-12-29T20:28:47.824Z,98168.96
2022-12-29T20:31:18.906Z,98169.33
2022-12-29T20:33:47.894Z,98173.02
2022-12-29T20:36:23.743Z,98172.67
2022-12-29T20:38:53.234Z,98172.71
2022-12-29T20:41:22.812Z,98164.75
2022-12-29T20:43:51.101Z,98165.01
2022-12-29T20:46:21.772Z,98165.67
2022-12-29T20:48:50.935Z,98162.08
2022-12-29T20:51:20.024Z,98159.37
2022-12-29T20:53:48.422Z,98166.25
2022-12-29T20:56:23.318Z,98179.63
2022-12-29T20:59:25.861Z,98183.66
2022-12-29T21:01:42.894Z,98173.29
2022-12-29T21:04:10.856Z,98189.11
2022-12-29T21:06:38.698Z,98183.29
2022-12-29T21:09:06.958Z,98195.76
2022-12-29T21:11:34.903Z,98194.73
2022-12-29T21:14:02.870Z,98182.96
2022-12-29T21:16:30.827Z,98179.90
2022-12-29T21:18:59.024Z,98174.66
2022-12-29T21:21:26.882Z,98179.48
2022-12-29T21:23:55.121Z,98185.98
2022-12-29T21:26:24.037Z,98176.88
2022-12-29T21:28:52.172Z,98171.91
2022-12-29T21:31:24.524Z,98174.72
2022-12-29T21:33:52.720Z,98175.98
2022-12-29T21:36:20.709Z,98162.04
2022-12-29T21:38:48.532Z,98159.64
2022-12-29T21:41:17.626Z,98154.41
2022-12-29T21:44:09.525Z,98145.29
2022-12-29T21:46:38.838Z,98133.39
2022-12-29T21:49:07.336Z,98127.62
2022-12-29T21:51:50.751Z,98133.64
2022-12-29T21:54:42.807Z,98135.95
2022-12-29T21:57:14.379Z,98139.28
2022-12-29T22:00:08.305Z,98136.65
2022-12-29T22:02:56.239Z,98135.56
2022-12-29T22:05:42.991Z,98136.64
2022-12-29T22:08:29.538Z,98133.52
2022-12-29T22:11:16.178Z,98128.77
2022-12-29T22:13:44.085Z,98126.38
2022-12-29T22:16:12.529Z,98128.51
2022-12-29T22:18:40.528Z,98139.72
2022-12-29T22:21:09.765Z,98138.94
2022-12-29T22:23:37.981Z,98130.86
2022-12-29T22:26:07.570Z,98124.80
2022-12-29T22:28:38.091Z,98126.10
2022-12-29T22:31:07.075Z,98142.80
2022-12-29T22:33:34.993Z,98134.74
2022-12-29T22:36:02.911Z,98127.15
2022-12-29T22:38:30.870Z,98137.88
2022-12-29T22:40:59.875Z,98139.41
2022-12-29T22:43:30.166Z,98136.91
2022-12-29T22:46:05.227Z,98125.27
2022-12-29T22:48:35.236Z,98125.02
2022-12-29T22:51:04.022Z,98128.18
2022-12-29T22:53:31.927Z,98117.52
2022-12-29T22:56:07.215Z,98120.31
2022-12-29T22:58:35.473Z,98132.24
2022-12-29T23:01:05.633Z,98137.23
2022-12-29T23:03:35.134Z,98132.25
2022-12-29T23:06:04.575Z,98125.83
2022-12-29T23:08:34.575Z,98122.59
2022-12-29T23:11:03.327Z,98120.55
2022-12-29T23:13:31.541Z,98123.95
2022-12-29T23:15:59.600Z,98123.02
2022-12-29T23:18:27.626Z,98123.91
2022-12-29T23:20:55.974Z,98119.30
2022-12-29T23:23:48.940Z,98108.30
2022-12-29T23:26:17.824Z,98112.49
2022-12-29T23:28:45.717Z,98113.34
2022-12-29T23:31:14.196Z,98118.00
2022-12-29T23:33:42.320Z,98127.41
2022-12-29T23:36:10.263Z,98120.20
2022-12-29T23:38:38.164Z,98121.30
2022-12-29T23:41:06.083Z,98120.16
2022-12-29T23:43:34.053Z,98119.79
2022-12-29T23:46:06.609Z,98124.08
2022-12-29T23:48:34.504Z,98124.34
2022-12-29T23:51:03.031Z,98118.86
2022-12-29T23:53:31.577Z,98116.30
2022-12-29T23:55:59.510Z,98119.59
2022-12-29T23:58:29.932Z,98130.27
